sensor_id;sensor_type;location;lat;lon;timestamp;P1;durP1;ratioP1;P2;durP2;ratioP2
76546;SDS011;65390;53.014;8.886;2023-03-01T00:00:37;16.10;;;8.18;;
76546;SDS011;65390;53.014;8.886;2023-03-01T00:03:03;17.85;;;7.88;;
76546;SDS011;65390;53.014;8.886;2023-03-01T00:05:28;16.60;;;9.23;;
76546;SDS011;65390;53.014;8.886;2023-03-01T00:07:53;14.50;;;8.18;;
76546;SDS011;65390;53.014;8.886;2023-03-01T00:10:19;13.13;;;7.95;;
76546;SDS011;65390;53.014;8.886;2023-03-01T00:12:44;14.32;;;7.97;;
76546;SDS011;65390;53.014;8.886;2023-03-01T00:15:10;15.13;;;8.38;;
76546;SDS011;65390;53.014;8.886;2023-03-01T00:17:36;18.02;;;9.07;;
76546;SDS011;65390;53.014;8.886;2023-03-01T00:20:01;15.65;;;8.02;;
76546;SDS011;65390;53.014;8.886;2023-03-01T00:22:27;15.23;;;7.78;;
76546;SDS011;65390;53.014;8.886;2023-03-01T00:24:53;16.30;;;8.85;;
76546;SDS011;65390;53.014;8.886;2023-03-01T00:27:19;28.15;;;11.27;;
76546;SDS011;65390;53.014;8.886;2023-03-01T00:29:44;24.20;;;10.55;;
76546;SDS011;65390;53.014;8.886;2023-03-01T00:32:09;26.48;;;11.77;;
76546;SDS011;65390;53.014;8.886;2023-03-01T00:34:35;19.10;;;11.07;;
76546;SDS011;65390;53.014;8.886;2023-03-01T00:37:00;26.38;;;13.45;;
76546;SDS011;65390;53.014;8.886;2023-03-01T00:41:55;27.88;;;13.45;;
76546;SDS011;65390;53.014;8.886;2023-03-01T00:44:21;25.35;;;13.02;;
76546;SDS011;65390;53.014;8.886;2023-03-01T00:46:46;30.15;;;13.40;;
76546;SDS011;65390;53.014;8.886;2023-03-01T00:49:12;26.98;;;14.68;;
76546;SDS011;65390;53.014;8.886;2023-03-01T00:51:38;23.35;;;12.52;;
76546;SDS011;65390;53.014;8.886;2023-03-01T00:54:07;26.00;;;12.73;;
76546;SDS011;65390;53.014;8.886;2023-03-01T00:56:33;23.85;;;13.75;;
76546;SDS011;65390;53.014;8.886;2023-03-01T00:58:59;26.90;;;14.25;;
76546;SDS011;65390;53.014;8.886;2023-03-01T01:01:26;26.67;;;14.70;;
76546;SDS011;65390;53.014;8.886;2023-03-01T01:04:03;25.33;;;13.77;;
76546;SDS011;65390;53.014;8.886;2023-03-01T01:06:35;33.90;;;15.20;;
76546;SDS011;65390;53.014;8.886;2023-03-01T01:09:03;26.90;;;14.60;;
76546;SDS011;65390;53.014;8.886;2023-03-01T01:11:30;24.60;;;13.80;;
76546;SDS011;65390;53.014;8.886;2023-03-01T01:13:56;23.98;;;13.68;;
76546;SDS011;65390;53.014;8.886;2023-03-01T01:16:23;21.20;;;11.80;;
76546;SDS011;65390;53.014;8.886;2023-03-01T01:18:50;26.45;;;14.35;;
76546;SDS011;65390;53.014;8.886;2023-03-01T01:21:17;26.35;;;14.23;;
76546;SDS011;65390;53.014;8.886;2023-03-01T01:23:44;21.80;;;13.32;;
76546;SDS011;65390;53.014;8.886;2023-03-01T01:26:12;26.80;;;13.90;;
76546;SDS011;65390;53.014;8.886;2023-03-01T01:28:39;30.27;;;16.30;;
76546;SDS011;65390;53.014;8.886;2023-03-01T01:31:05;29.48;;;14.65;;
76546;SDS011;65390;53.014;8.886;2023-03-01T01:33:31;27.80;;;14.13;;
76546;SDS011;65390;53.014;8.886;2023-03-01T01:35:57;28.65;;;16.10;;
76546;SDS011;65390;53.014;8.886;2023-03-01T01:38:23;30.75;;;16.30;;
76546;SDS011;65390;53.014;8.886;2023-03-01T01:40:49;34.72;;;16.10;;
76546;SDS011;65390;53.014;8.886;2023-03-01T01:43:22;25.80;;;15.00;;
76546;SDS011;65390;53.014;8.886;2023-03-01T01:45:51;30.00;;;15.98;;
76546;SDS011;65390;53.014;8.886;2023-03-01T01:48:21;32.03;;;16.05;;
76546;SDS011;65390;53.014;8.886;2023-03-01T01:50:55;34.53;;;15.88;;
76546;SDS011;65390;53.014;8.886;2023-03-01T01:53:24;28.40;;;15.23;;
76546;SDS011;65390;53.014;8.886;2023-03-01T01:55:54;28.75;;;15.93;;
76546;SDS011;65390;53.014;8.886;2023-03-01T01:58:23;31.42;;;15.73;;
76546;SDS011;65390;53.014;8.886;2023-03-01T02:00:52;30.77;;;16.27;;
76546;SDS011;65390;53.014;8.886;2023-03-01T02:03:19;28.80;;;14.75;;
76546;SDS011;65390;53.014;8.886;2023-03-01T02:05:57;26.55;;;16.00;;
76546;SDS011;65390;53.014;8.886;2023-03-01T02:08:24;30.45;;;14.50;;
76546;SDS011;65390;53.014;8.886;2023-03-01T02:10:51;32.43;;;14.60;;
76546;SDS011;65390;53.014;8.886;2023-03-01T02:13:19;33.20;;;18.45;;
76546;SDS011;65390;53.014;8.886;2023-03-01T02:15:45;30.50;;;16.67;;
76546;SDS011;65390;53.014;8.886;2023-03-01T02:18:12;30.30;;;16.30;;
76546;SDS011;65390;53.014;8.886;2023-03-01T02:20:48;26.85;;;15.57;;
76546;SDS011;65390;53.014;8.886;2023-03-01T02:23:34;24.73;;;16.15;;
76546;SDS011;65390;53.014;8.886;2023-03-01T02:26:21;29.00;;;15.57;;
76546;SDS011;65390;53.014;8.886;2023-03-01T02:28:52;30.98;;;15.40;;
76546;SDS011;65390;53.014;8.886;2023-03-01T02:31:19;25.48;;;14.63;;
76546;SDS011;65390;53.014;8.886;2023-03-01T02:34:04;30.70;;;14.55;;
76546;SDS011;65390;53.014;8.886;2023-03-01T02:36:36;24.08;;;14.05;;
76546;SDS011;65390;53.014;8.886;2023-03-01T02:39:05;26.20;;;14.68;;
76546;SDS011;65390;53.014;8.886;2023-03-01T02:41:33;27.58;;;14.48;;
76546;SDS011;65390;53.014;8.886;2023-03-01T02:44:01;25.02;;;14.50;;
76546;SDS011;65390;53.014;8.886;2023-03-01T02:46:27;26.25;;;13.73;;
76546;SDS011;65390;53.014;8.886;2023-03-01T02:48:54;29.83;;;15.65;;
76546;SDS011;65390;53.014;8.886;2023-03-01T02:53:58;25.00;;;14.63;;
76546;SDS011;65390;53.014;8.886;2023-03-01T02:56:30;28.42;;;14.30;;
76546;SDS011;65390;53.014;8.886;2023-03-01T02:58:56;26.52;;;15.07;;
76546;SDS011;65390;53.014;8.886;2023-03-01T03:01:25;25.52;;;16.15;;
76546;SDS011;65390;53.014;8.886;2023-03-01T03:04:02;33.78;;;15.82;;
76546;SDS011;65390;53.014;8.886;2023-03-01T03:06:31;28.23;;;14.95;;
76546;SDS011;65390;53.014;8.886;2023-03-01T03:08:56;27.25;;;15.10;;
76546;SDS011;65390;53.014;8.886;2023-03-01T03:11:22;30.40;;;17.90;;
76546;SDS011;65390;53.014;8.886;2023-03-01T03:13:48;28.20;;;15.98;;
76546;SDS011;65390;53.014;8.886;2023-03-01T03:16:14;35.25;;;17.13;;
76546;SDS011;65390;53.014;8.886;2023-03-01T03:18:39;31.65;;;15.88;;
76546;SDS011;65390;53.014;8.886;2023-03-01T03:21:08;25.98;;;15.02;;
76546;SDS011;65390;53.014;8.886;2023-03-01T03:23:37;32.03;;;17.05;;
76546;SDS011;65390;53.014;8.886;2023-03-01T03:26:03;26.20;;;15.07;;
76546;SDS011;65390;53.014;8.886;2023-03-01T03:28:30;27.98;;;16.13;;
76546;SDS011;65390;53.014;8.886;2023-03-01T03:30:59;30.73;;;16.65;;
76546;SDS011;65390;53.014;8.886;2023-03-01T03:33:29;34.88;;;16.58;;
76546;SDS011;65390;53.014;8.886;2023-03-01T03:35:57;30.60;;;16.52;;
76546;SDS011;65390;53.014;8.886;2023-03-01T03:38:23;36.85;;;17.17;;
76546;SDS011;65390;53.014;8.886;2023-03-01T03:40:50;28.00;;;16.83;;
76546;SDS011;65390;53.014;8.886;2023-03-01T03:43:21;32.90;;;18.35;;
76546;SDS011;65390;53.014;8.886;2023-03-01T03:45:48;31.02;;;16.65;;
76546;SDS011;65390;53.014;8.886;2023-03-01T03:48:15;29.50;;;16.55;;
76546;SDS011;65390;53.014;8.886;2023-03-01T03:50:46;33.00;;;17.75;;
76546;SDS011;65390;53.014;8.886;2023-03-01T03:53:14;30.33;;;16.40;;
76546;SDS011;65390;53.014;8.886;2023-03-01T03:55:40;31.90;;;18.25;;
76546;SDS011;65390;53.014;8.886;2023-03-01T03:58:09;30.70;;;16.83;;
76546;SDS011;65390;53.014;8.886;2023-03-01T04:00:36;33.10;;;17.17;;
76546;SDS011;65390;53.014;8.886;2023-03-01T04:03:03;33.13;;;16.20;;
76546;SDS011;65390;53.014;8.886;2023-03-01T04:05:28;31.27;;;16.83;;
76546;SDS011;65390;53.014;8.886;2023-03-01T04:07:54;28.92;;;16.13;;
76546;SDS011;65390;53.014;8.886;2023-03-01T04:10:35;31.85;;;16.67;;
76546;SDS011;65390;53.014;8.886;2023-03-01T04:13:05;32.78;;;16.77;;
76546;SDS011;65390;53.014;8.886;2023-03-01T04:15:32;27.85;;;15.85;;
76546;SDS011;65390;53.014;8.886;2023-03-01T04:17:58;26.42;;;15.32;;
76546;SDS011;65390;53.014;8.886;2023-03-01T04:20:25;29.42;;;14.73;;
76546;SDS011;65390;53.014;8.886;2023-03-01T04:22:57;34.20;;;16.45;;
76546;SDS011;65390;53.014;8.886;2023-03-01T04:25:23;27.58;;;16.30;;
76546;SDS011;65390;53.014;8.886;2023-03-01T04:27:48;30.27;;;16.40;;
76546;SDS011;65390;53.014;8.886;2023-03-01T04:30:15;31.00;;;16.05;;
76546;SDS011;65390;53.014;8.886;2023-03-01T04:32:41;33.80;;;16.60;;
76546;SDS011;65390;53.014;8.886;2023-03-01T04:35:06;31.45;;;16.20;;
76546;SDS011;65390;53.014;8.886;2023-03-01T04:37:32;27.00;;;15.23;;
76546;SDS011;65390;53.014;8.886;2023-03-01T04:39:58;29.08;;;15.88;;
76546;SDS011;65390;53.014;8.886;2023-03-01T04:42:23;25.88;;;15.45;;
76546;SDS011;65390;53.014;8.886;2023-03-01T04:44:48;27.83;;;15.88;;
76546;SDS011;65390;53.014;8.886;2023-03-01T04:47:16;29.20;;;15.27;;
76546;SDS011;65390;53.014;8.886;2023-03-01T04:49:42;27.55;;;16.20;;
76546;SDS011;65390;53.014;8.886;2023-03-01T04:52:07;26.13;;;14.93;;
76546;SDS011;65390;53.014;8.886;2023-03-01T04:54:34;28.80;;;14.32;;
76546;SDS011;65390;53.014;8.886;2023-03-01T04:57:00;46.55;;;15.27;;
76546;SDS011;65390;53.014;8.886;2023-03-01T04:59:27;21.13;;;13.65;;
76546;SDS011;65390;53.014;8.886;2023-03-01T05:01:53;26.83;;;15.75;;
76546;SDS011;65390;53.014;8.886;2023-03-01T05:04:25;28.30;;;15.52;;
76546;SDS011;65390;53.014;8.886;2023-03-01T05:06:50;26.13;;;14.85;;
76546;SDS011;65390;53.014;8.886;2023-03-01T05:09:16;30.02;;;15.55;;
76546;SDS011;65390;53.014;8.886;2023-03-01T05:11:41;26.50;;;14.52;;
76546;SDS011;65390;53.014;8.886;2023-03-01T05:14:07;25.50;;;13.55;;
76546;SDS011;65390;53.014;8.886;2023-03-01T05:16:34;22.02;;;13.35;;
76546;SDS011;65390;53.014;8.886;2023-03-01T05:19:01;24.13;;;13.52;;
76546;SDS011;65390;53.014;8.886;2023-03-01T05:21:36;26.15;;;14.75;;
76546;SDS011;65390;53.014;8.886;2023-03-01T05:24:22;29.27;;;15.23;;
76546;SDS011;65390;53.014;8.886;2023-03-01T05:26:47;27.05;;;14.48;;
76546;SDS011;65390;53.014;8.886;2023-03-01T05:29:13;24.08;;;14.40;;
76546;SDS011;65390;53.014;8.886;2023-03-01T05:31:38;27.38;;;14.25;;
76546;SDS011;65390;53.014;8.886;2023-03-01T05:34:03;27.70;;;15.68;;
76546;SDS011;65390;53.014;8.886;2023-03-01T05:36:29;28.27;;;14.95;;
76546;SDS011;65390;53.014;8.886;2023-03-01T05:38:55;27.38;;;15.18;;
76546;SDS011;65390;53.014;8.886;2023-03-01T05:41:20;26.42;;;15.48;;
76546;SDS011;65390;53.014;8.886;2023-03-01T05:43:46;24.60;;;13.35;;
76546;SDS011;65390;53.014;8.886;2023-03-01T05:46:11;24.52;;;13.85;;
76546;SDS011;65390;53.014;8.886;2023-03-01T05:48:38;25.20;;;13.70;;
76546;SDS011;65390;53.014;8.886;2023-03-01T05:51:03;23.42;;;13.48;;
76546;SDS011;65390;53.014;8.886;2023-03-01T05:53:29;23.52;;;14.10;;
76546;SDS011;65390;53.014;8.886;2023-03-01T05:55:54;26.92;;;14.00;;
76546;SDS011;65390;53.014;8.886;2023-03-01T05:58:20;26.10;;;14.00;;
76546;SDS011;65390;53.014;8.886;2023-03-01T06:00:47;32.85;;;15.10;;
76546;SDS011;65390;53.014;8.886;2023-03-01T06:03:13;26.85;;;14.70;;
76546;SDS011;65390;53.014;8.886;2023-03-01T06:05:41;24.60;;;13.50;;
76546;SDS011;65390;53.014;8.886;2023-03-01T06:08:08;23.80;;;12.50;;
76546;SDS011;65390;53.014;8.886;2023-03-01T06:10:34;27.63;;;14.65;;
76546;SDS011;65390;53.014;8.886;2023-03-01T06:13:00;29.00;;;14.57;;
76546;SDS011;65390;53.014;8.886;2023-03-01T06:15:25;22.52;;;13.93;;
76546;SDS011;65390;53.014;8.886;2023-03-01T06:17:53;32.03;;;14.35;;
76546;SDS011;65390;53.014;8.886;2023-03-01T06:20:20;23.35;;;14.30;;
76546;SDS011;65390;53.014;8.886;2023-03-01T06:22:47;23.25;;;12.35;;
76546;SDS011;65390;53.014;8.886;2023-03-01T06:25:14;26.60;;;12.93;;
76546;SDS011;65390;53.014;8.886;2023-03-01T06:27:46;36.30;;;13.60;;
76546;SDS011;65390;53.014;8.886;2023-03-01T06:30:19;27.63;;;13.18;;
76546;SDS011;65390;53.014;8.886;2023-03-01T06:32:49;29.52;;;14.00;;
76546;SDS011;65390;53.014;8.886;2023-03-01T06:35:15;26.90;;;12.43;;
76546;SDS011;65390;53.014;8.886;2023-03-01T06:37:45;31.75;;;13.63;;
76546;SDS011;65390;53.014;8.886;2023-03-01T06:40:11;34.33;;;14.13;;
76546;SDS011;65390;53.014;8.886;2023-03-01T06:42:39;24.67;;;13.15;;
76546;SDS011;65390;53.014;8.886;2023-03-01T06:45:06;26.00;;;13.32;;
76546;SDS011;65390;53.014;8.886;2023-03-01T06:47:32;27.70;;;13.52;;
76546;SDS011;65390;53.014;8.886;2023-03-01T06:49:59;19.52;;;12.65;;
76546;SDS011;65390;53.014;8.886;2023-03-01T06:52:25;22.48;;;13.13;;
76546;SDS011;65390;53.014;8.886;2023-03-01T06:54:50;23.17;;;12.32;;
76546;SDS011;65390;53.014;8.886;2023-03-01T06:57:16;24.10;;;13.00;;
76546;SDS011;65390;53.014;8.886;2023-03-01T06:59:49;25.48;;;14.95;;
76546;SDS011;65390;53.014;8.886;2023-03-01T07:02:28;22.60;;;13.63;;
76546;SDS011;65390;53.014;8.886;2023-03-01T07:04:56;22.63;;;12.75;;
76546;SDS011;65390;53.014;8.886;2023-03-01T07:07:22;23.02;;;13.13;;
76546;SDS011;65390;53.014;8.886;2023-03-01T07:09:48;22.92;;;13.32;;
76546;SDS011;65390;53.014;8.886;2023-03-01T07:14:48;19.13;;;10.63;;
76546;SDS011;65390;53.014;8.886;2023-03-01T07:17:23;20.88;;;12.55;;
76546;SDS011;65390;53.014;8.886;2023-03-01T07:19:52;35.67;;;17.50;;
76546;SDS011;65390;53.014;8.886;2023-03-01T07:22:17;32.50;;;19.08;;
76546;SDS011;65390;53.014;8.886;2023-03-01T07:24:43;28.15;;;14.85;;
76546;SDS011;65390;53.014;8.886;2023-03-01T07:27:09;19.98;;;12.55;;
76546;SDS011;65390;53.014;8.886;2023-03-01T07:29:45;24.48;;;12.15;;
76546;SDS011;65390;53.014;8.886;2023-03-01T07:32:11;19.58;;;12.05;;
76546;SDS011;65390;53.014;8.886;2023-03-01T07:34:37;23.75;;;12.32;;
76546;SDS011;65390;53.014;8.886;2023-03-01T07:37:02;22.40;;;12.80;;
76546;SDS011;65390;53.014;8.886;2023-03-01T07:39:27;19.67;;;11.90;;
76546;SDS011;65390;53.014;8.886;2023-03-01T07:41:53;20.70;;;11.85;;
76546;SDS011;65390;53.014;8.886;2023-03-01T07:44:18;18.85;;;12.43;;
76546;SDS011;65390;53.014;8.886;2023-03-01T07:46:44;23.90;;;12.45;;
76546;SDS011;65390;53.014;8.886;2023-03-01T07:49:09;17.70;;;11.60;;
76546;SDS011;65390;53.014;8.886;2023-03-01T07:51:35;15.43;;;10.93;;
76546;SDS011;65390;53.014;8.886;2023-03-01T07:54:00;15.80;;;10.93;;
76546;SDS011;65390;53.014;8.886;2023-03-01T07:56:26;14.35;;;10.32;;
76546;SDS011;65390;53.014;8.886;2023-03-01T07:58:51;17.73;;;11.57;;
76546;SDS011;65390;53.014;8.886;2023-03-01T08:01:18;17.02;;;10.13;;
76546;SDS011;65390;53.014;8.886;2023-03-01T08:03:44;17.63;;;11.40;;
76546;SDS011;65390;53.014;8.886;2023-03-01T08:06:11;17.40;;;10.32;;
76546;SDS011;65390;53.014;8.886;2023-03-01T08:08:38;16.45;;;10.07;;
76546;SDS011;65390;53.014;8.886;2023-03-01T08:11:04;21.50;;;11.75;;
76546;SDS011;65390;53.014;8.886;2023-03-01T08:13:31;18.27;;;10.93;;
76546;SDS011;65390;53.014;8.886;2023-03-01T08:16:06;18.30;;;10.23;;
76546;SDS011;65390;53.014;8.886;2023-03-01T08:18:33;17.23;;;10.32;;
76546;SDS011;65390;53.014;8.886;2023-03-01T08:21:02;18.55;;;12.10;;
76546;SDS011;65390;53.014;8.886;2023-03-01T08:23:29;19.95;;;10.98;;
76546;SDS011;65390;53.014;8.886;2023-03-01T08:25:55;16.92;;;10.05;;
76546;SDS011;65390;53.014;8.886;2023-03-01T08:28:33;17.38;;;11.20;;
76546;SDS011;65390;53.014;8.886;2023-03-01T08:30:58;15.27;;;10.73;;
76546;SDS011;65390;53.014;8.886;2023-03-01T08:33:24;17.73;;;11.52;;
76546;SDS011;65390;53.014;8.886;2023-03-01T08:35:51;18.58;;;12.93;;
76546;SDS011;65390;53.014;8.886;2023-03-01T08:38:17;23.25;;;13.65;;
76546;SDS011;65390;53.014;8.886;2023-03-01T08:40:42;17.15;;;11.25;;
76546;SDS011;65390;53.014;8.886;2023-03-01T08:43:08;17.23;;;10.77;;
76546;SDS011;65390;53.014;8.886;2023-03-01T08:45:33;16.00;;;10.23;;
76546;SDS011;65390;53.014;8.886;2023-03-01T08:47:59;21.52;;;11.00;;
76546;SDS011;65390;53.014;8.886;2023-03-01T08:50:24;23.75;;;12.70;;
76546;SDS011;65390;53.014;8.886;2023-03-01T08:52:50;25.55;;;13.70;;
76546;SDS011;65390;53.014;8.886;2023-03-01T08:55:16;23.30;;;12.23;;
76546;SDS011;65390;53.014;8.886;2023-03-01T08:57:42;33.25;;;12.30;;
76546;SDS011;65390;53.014;8.886;2023-03-01T09:00:08;22.88;;;11.27;;
76546;SDS011;65390;53.014;8.886;2023-03-01T09:02:36;26.38;;;11.13;;
76546;SDS011;65390;53.014;8.886;2023-03-01T09:05:01;23.42;;;10.13;;
76546;SDS011;65390;53.014;8.886;2023-03-01T09:07:27;21.55;;;9.80;;
76546;SDS011;65390;53.014;8.886;2023-03-01T09:09:55;21.35;;;10.50;;
76546;SDS011;65390;53.014;8.886;2023-03-01T09:12:20;23.85;;;10.95;;
76546;SDS011;65390;53.014;8.886;2023-03-01T09:14:46;19.35;;;8.90;;
76546;SDS011;65390;53.014;8.886;2023-03-01T09:17:11;20.70;;;10.23;;
76546;SDS011;65390;53.014;8.886;2023-03-01T09:19:36;23.17;;;9.95;;
76546;SDS011;65390;53.014;8.886;2023-03-01T09:22:03;14.75;;;10.02;;
76546;SDS011;65390;53.014;8.886;2023-03-01T09:24:29;13.80;;;8.60;;
76546;SDS011;65390;53.014;8.886;2023-03-01T09:26:55;12.93;;;8.15;;
76546;SDS011;65390;53.014;8.886;2023-03-01T09:29:21;17.02;;;8.63;;
76546;SDS011;65390;53.014;8.886;2023-03-01T09:31:46;17.67;;;7.68;;
76546;SDS011;65390;53.014;8.886;2023-03-01T09:34:12;16.90;;;8.32;;
76546;SDS011;65390;53.014;8.886;2023-03-01T09:36:40;16.10;;;9.85;;
76546;SDS011;65390;53.014;8.886;2023-03-01T09:39:06;19.13;;;10.32;;
76546;SDS011;65390;53.014;8.886;2023-03-01T09:41:54;13.32;;;8.38;;
76546;SDS011;65390;53.014;8.886;2023-03-01T09:44:30;12.43;;;8.88;;
76546;SDS011;65390;53.014;8.886;2023-03-01T09:47:01;15.40;;;9.27;;
76546;SDS011;65390;53.014;8.886;2023-03-01T09:49:29;15.90;;;8.57;;
76546;SDS011;65390;53.014;8.886;2023-03-01T09:54:52;15.13;;;9.02;;
76546;SDS011;65390;53.014;8.886;2023-03-01T09:57:22;15.23;;;10.10;;
76546;SDS011;65390;53.014;8.886;2023-03-01T10:02:27;17.00;;;8.98;;
76546;SDS011;65390;53.014;8.886;2023-03-01T10:04:58;19.58;;;9.13;;
76546;SDS011;65390;53.014;8.886;2023-03-01T10:10:16;16.58;;;9.30;;
76546;SDS011;65390;53.014;8.886;2023-03-01T10:12:52;18.48;;;9.57;;
76546;SDS011;65390;53.014;8.886;2023-03-01T10:15:19;14.77;;;9.50;;
76546;SDS011;65390;53.014;8.886;2023-03-01T10:17:51;20.58;;;10.32;;
76546;SDS011;65390;53.014;8.886;2023-03-01T10:20:22;47.05;;;21.52;;
76546;SDS011;65390;53.014;8.886;2023-03-01T10:22:50;38.90;;;19.88;;
76546;SDS011;65390;53.014;8.886;2023-03-01T10:25:36;30.60;;;14.77;;
76546;SDS011;65390;53.014;8.886;2023-03-01T10:28:42;21.60;;;10.25;;
76546;SDS011;65390;53.014;8.886;2023-03-01T10:31:16;17.05;;;9.55;;
76546;SDS011;65390;53.014;8.886;2023-03-01T10:33:45;17.08;;;9.40;;
76546;SDS011;65390;53.014;8.886;2023-03-01T10:36:16;17.67;;;9.95;;
76546;SDS011;65390;53.014;8.886;2023-03-01T10:38:49;20.27;;;9.43;;
76546;SDS011;65390;53.014;8.886;2023-03-01T10:41:14;24.75;;;12.70;;
76546;SDS011;65390;53.014;8.886;2023-03-01T10:43:47;22.60;;;11.07;;
76546;SDS011;65390;53.014;8.886;2023-03-01T10:46:34;14.70;;;8.70;;
76546;SDS011;65390;53.014;8.886;2023-03-01T10:49:10;15.52;;;8.27;;
76546;SDS011;65390;53.014;8.886;2023-03-01T10:51:55;18.50;;;8.23;;
76546;SDS011;65390;53.014;8.886;2023-03-01T10:54:39;12.13;;;7.25;;
76546;SDS011;65390;53.014;8.886;2023-03-01T10:57:10;13.18;;;7.88;;
76546;SDS011;65390;53.014;8.886;2023-03-01T11:00:35;13.75;;;7.40;;
76546;SDS011;65390;53.014;8.886;2023-03-01T11:05:25;11.48;;;6.88;;
76546;SDS011;65390;53.014;8.886;2023-03-01T11:07:54;11.93;;;6.73;;
76546;SDS011;65390;53.014;8.886;2023-03-01T11:10:59;14.23;;;7.80;;
76546;SDS011;65390;53.014;8.886;2023-03-01T11:13:17;10.40;;;6.45;;
76546;SDS011;65390;53.014;8.886;2023-03-01T11:16:06;15.18;;;7.47;;
76546;SDS011;65390;53.014;8.886;2023-03-01T11:18:36;14.32;;;7.30;;
76546;SDS011;65390;53.014;8.886;2023-03-01T11:21:02;15.15;;;7.90;;
76546;SDS011;65390;53.014;8.886;2023-03-01T11:23:28;11.05;;;7.30;;
76546;SDS011;65390;53.014;8.886;2023-03-01T11:25:56;13.40;;;7.97;;
76546;SDS011;65390;53.014;8.886;2023-03-01T11:28:28;15.38;;;8.73;;
76546;SDS011;65390;53.014;8.886;2023-03-01T11:31:05;11.85;;;6.90;;
76546;SDS011;65390;53.014;8.886;2023-03-01T11:33:59;10.80;;;7.65;;
76546;SDS011;65390;53.014;8.886;2023-03-01T11:36:44;17.73;;;10.50;;
76546;SDS011;65390;53.014;8.886;2023-03-01T11:39:22;15.93;;;9.07;;
76546;SDS011;65390;53.014;8.886;2023-03-01T11:44:39;19.45;;;9.90;;
76546;SDS011;65390;53.014;8.886;2023-03-01T11:50:05;15.05;;;9.50;;
76546;SDS011;65390;53.014;8.886;2023-03-01T11:55:46;14.38;;;8.55;;
76546;SDS011;65390;53.014;8.886;2023-03-01T12:12:53;17.33;;;11.00;;
76546;SDS011;65390;53.014;8.886;2023-03-01T12:40:03;16.08;;;10.18;;
76546;SDS011;65390;53.014;8.886;2023-03-01T12:42:43;19.55;;;11.07;;
76546;SDS011;65390;53.014;8.886;2023-03-01T12:45:40;14.77;;;10.60;;
76546;SDS011;65390;53.014;8.886;2023-03-01T12:48:20;17.85;;;9.52;;
76546;SDS011;65390;53.014;8.886;2023-03-01T12:50:52;12.93;;;9.90;;
76546;SDS011;65390;53.014;8.886;2023-03-01T12:53:23;14.73;;;9.95;;
76546;SDS011;65390;53.014;8.886;2023-03-01T12:55:50;16.48;;;9.27;;
76546;SDS011;65390;53.014;8.886;2023-03-01T13:01:00;14.52;;;10.13;;
76546;SDS011;65390;53.014;8.886;2023-03-01T13:03:56;13.13;;;8.70;;
76546;SDS011;65390;53.014;8.886;2023-03-01T13:12:02;14.98;;;8.73;;
76546;SDS011;65390;53.014;8.886;2023-03-01T13:16:56;17.58;;;9.43;;
76546;SDS011;65390;53.014;8.886;2023-03-01T13:19:28;14.63;;;9.63;;
76546;SDS011;65390;53.014;8.886;2023-03-01T13:22:01;14.23;;;9.43;;
76546;SDS011;65390;53.014;8.886;2023-03-01T13:25:11;13.95;;;8.90;;
76546;SDS011;65390;53.014;8.886;2023-03-01T13:27:43;13.35;;;9.82;;
76546;SDS011;65390;53.014;8.886;2023-03-01T13:35:53;14.95;;;10.50;;
76546;SDS011;65390;53.014;8.886;2023-03-01T13:41:02;16.92;;;10.32;;
76546;SDS011;65390;53.014;8.886;2023-03-01T13:43:31;15.02;;;9.43;;
76546;SDS011;65390;53.014;8.886;2023-03-01T13:45:59;15.57;;;10.63;;
76546;SDS011;65390;53.014;8.886;2023-03-01T13:48:27;14.00;;;9.73;;
76546;SDS011;65390;53.014;8.886;2023-03-01T13:50:58;15.93;;;10.18;;
76546;SDS011;65390;53.014;8.886;2023-03-01T13:53:32;14.73;;;9.70;;
76546;SDS011;65390;53.014;8.886;2023-03-01T13:56:11;14.07;;;9.90;;
76546;SDS011;65390;53.014;8.886;2023-03-01T13:59:02;17.98;;;10.30;;
76546;SDS011;65390;53.014;8.886;2023-03-01T14:01:33;13.68;;;9.52;;
76546;SDS011;65390;53.014;8.886;2023-03-01T14:04:01;16.15;;;10.20;;
76546;SDS011;65390;53.014;8.886;2023-03-01T14:06:46;14.35;;;8.63;;
76546;SDS011;65390;53.014;8.886;2023-03-01T14:19:58;15.82;;;9.43;;
76546;SDS011;65390;53.014;8.886;2023-03-01T14:22:29;19.40;;;9.68;;
76546;SDS011;65390;53.014;8.886;2023-03-01T14:25:03;14.38;;;9.35;;
76546;SDS011;65390;53.014;8.886;2023-03-01T14:27:40;17.02;;;10.00;;
76546;SDS011;65390;53.014;8.886;2023-03-01T14:32:55;15.63;;;9.30;;
76546;SDS011;65390;53.014;8.886;2023-03-01T14:35:23;15.05;;;9.77;;
76546;SDS011;65390;53.014;8.886;2023-03-01T14:37:51;15.87;;;10.07;;
76546;SDS011;65390;53.014;8.886;2023-03-01T14:40:24;14.50;;;9.20;;
76546;SDS011;65390;53.014;8.886;2023-03-01T14:42:57;14.68;;;9.73;;
76546;SDS011;65390;53.014;8.886;2023-03-01T14:45:29;13.00;;;9.87;;
76546;SDS011;65390;53.014;8.886;2023-03-01T14:48:00;15.85;;;9.00;;
76546;SDS011;65390;53.014;8.886;2023-03-01T14:50:32;17.58;;;9.98;;
76546;SDS011;65390;53.014;8.886;2023-03-01T14:53:01;17.10;;;9.05;;
76546;SDS011;65390;53.014;8.886;2023-03-01T14:55:30;15.30;;;10.07;;
76546;SDS011;65390;53.014;8.886;2023-03-01T14:57:59;16.70;;;9.63;;
76546;SDS011;65390;53.014;8.886;2023-03-01T15:00:31;17.90;;;9.38;;
76546;SDS011;65390;53.014;8.886;2023-03-01T15:05:38;13.13;;;8.32;;
76546;SDS011;65390;53.014;8.886;2023-03-01T15:08:05;11.90;;;8.50;;
76546;SDS011;65390;53.014;8.886;2023-03-01T15:10:32;12.63;;;8.35;;
76546;SDS011;65390;53.014;8.886;2023-03-01T15:13:19;14.95;;;9.70;;
76546;SDS011;65390;53.014;8.886;2023-03-01T15:15:48;17.35;;;9.10;;
76546;SDS011;65390;53.014;8.886;2023-03-01T15:18:18;13.02;;;8.88;;
76546;SDS011;65390;53.014;8.886;2023-03-01T15:20:46;11.70;;;8.98;;
76546;SDS011;65390;53.014;8.886;2023-03-01T15:23:47;15.38;;;9.40;;
76546;SDS011;65390;53.014;8.886;2023-03-01T15:26:05;14.18;;;9.27;;
76546;SDS011;65390;53.014;8.886;2023-03-01T15:28:34;14.98;;;9.73;;
76546;SDS011;65390;53.014;8.886;2023-03-01T15:33:40;14.75;;;9.40;;
76546;SDS011;65390;53.014;8.886;2023-03-01T15:39:27;15.40;;;10.30;;
76546;SDS011;65390;53.014;8.886;2023-03-01T15:41:53;15.02;;;9.18;;
76546;SDS011;65390;53.014;8.886;2023-03-01T15:44:27;15.45;;;9.98;;
76546;SDS011;65390;53.014;8.886;2023-03-01T15:46:55;15.98;;;9.70;;
76546;SDS011;65390;53.014;8.886;2023-03-01T15:49:41;14.43;;;9.88;;
76546;SDS011;65390;53.014;8.886;2023-03-01T15:52:41;15.55;;;10.48;;
76546;SDS011;65390;53.014;8.886;2023-03-01T15:55:16;13.77;;;10.00;;
76546;SDS011;65390;53.014;8.886;2023-03-01T15:57:43;16.15;;;10.88;;
76546;SDS011;65390;53.014;8.886;2023-03-01T16:00:10;16.27;;;10.55;;
76546;SDS011;65390;53.014;8.886;2023-03-01T16:02:38;18.35;;;11.40;;
76546;SDS011;65390;53.014;8.886;2023-03-01T16:05:04;20.08;;;13.07;;
76546;SDS011;65390;53.014;8.886;2023-03-01T16:07:29;18.65;;;13.93;;
76546;SDS011;65390;53.014;8.886;2023-03-01T16:09:56;17.20;;;11.82;;
76546;SDS011;65390;53.014;8.886;2023-03-01T16:12:21;19.30;;;12.82;;
76546;SDS011;65390;53.014;8.886;2023-03-01T16:14:49;20.83;;;13.13;;
76546;SDS011;65390;53.014;8.886;2023-03-01T16:17:15;22.02;;;13.88;;
76546;SDS011;65390;53.014;8.886;2023-03-01T16:19:40;19.02;;;13.07;;
76546;SDS011;65390;53.014;8.886;2023-03-01T16:22:06;18.73;;;12.77;;
76546;SDS011;65390;53.014;8.886;2023-03-01T16:24:33;18.00;;;13.40;;
76546;SDS011;65390;53.014;8.886;2023-03-01T16:27:00;21.23;;;13.25;;